sensor_id;sensor_type;location;lat;lon;timestamp;P1;durP1;ratioP1;P2;durP2;ratioP2
54263;SDS011;40178;53.042;6.406;2023-06-19T00:02:02;9.70;;;6.90;;
54263;SDS011;40178;53.042;6.406;2023-06-19T00:04:27;9.85;;;7.15;;
54263;SDS011;40178;53.042;6.406;2023-06-19T00:06:53;8.57;;;6.97;;
54263;SDS011;40178;53.042;6.406;2023-06-19T00:09:19;10.05;;;6.82;;
54263;SDS011;40178;53.042;6.406;2023-06-19T00:11:45;9.07;;;6.65;;
54263;SDS011;40178;53.042;6.406;2023-06-19T00:14:10;10.25;;;6.70;;
54263;SDS011;40178;53.042;6.406;2023-06-19T00:16:36;10.23;;;6.70;;
54263;SDS011;40178;53.042;6.406;2023-06-19T00:19:02;10.18;;;7.35;;
54263;SDS011;40178;53.042;6.406;2023-06-19T00:21:28;10.38;;;6.70;;
54263;SDS011;40178;53.042;6.406;2023-06-19T00:23:54;9.00;;;6.13;;
54263;SDS011;40178;53.042;6.406;2023-06-19T00:26:21;9.23;;;6.28;;
54263;SDS011;40178;53.042;6.406;2023-06-19T00:28:50;11.45;;;7.32;;
54263;SDS011;40178;53.042;6.406;2023-06-19T00:31:18;8.45;;;6.40;;
54263;SDS011;40178;53.042;6.406;2023-06-19T00:33:44;9.13;;;6.65;;
54263;SDS011;40178;53.042;6.406;2023-06-19T00:36:14;8.77;;;6.68;;
54263;SDS011;40178;53.042;6.406;2023-06-19T00:38:41;10.93;;;6.60;;
54263;SDS011;40178;53.042;6.406;2023-06-19T00:41:07;10.30;;;6.25;;
54263;SDS011;40178;53.042;6.406;2023-06-19T00:43:33;9.73;;;6.85;;
54263;SDS011;40178;53.042;6.406;2023-06-19T00:45:59;9.98;;;6.65;;
54263;SDS011;40178;53.042;6.406;2023-06-19T00:48:26;8.45;;;6.20;;
54263;SDS011;40178;53.042;6.406;2023-06-19T00:50:57;8.60;;;6.43;;
54263;SDS011;40178;53.042;6.406;2023-06-19T00:53:23;9.32;;;6.38;;
54263;SDS011;40178;53.042;6.406;2023-06-19T00:55:50;10.38;;;7.43;;
54263;SDS011;40178;53.042;6.406;2023-06-19T00:58:19;9.57;;;6.40;;
54263;SDS011;40178;53.042;6.406;2023-06-19T01:00:46;8.88;;;7.05;;
54263;SDS011;40178;53.042;6.406;2023-06-19T01:03:13;9.45;;;6.88;;
54263;SDS011;40178;53.042;6.406;2023-06-19T01:05:39;10.63;;;6.80;;
54263;SDS011;40178;53.042;6.406;2023-06-19T01:08:09;9.18;;;6.78;;
54263;SDS011;40178;53.042;6.406;2023-06-19T01:10:52;9.70;;;6.90;;
54263;SDS011;40178;53.042;6.406;2023-06-19T01:16:04;9.40;;;7.03;;
54263;SDS011;40178;53.042;6.406;2023-06-19T01:18:32;10.75;;;6.90;;
54263;SDS011;40178;53.042;6.406;2023-06-19T01:21:18;9.73;;;6.60;;
54263;SDS011;40178;53.042;6.406;2023-06-19T01:23:44;8.63;;;6.60;;
54263;SDS011;40178;53.042;6.406;2023-06-19T01:26:10;10.35;;;7.05;;
54263;SDS011;40178;53.042;6.406;2023-06-19T01:28:37;11.05;;;6.82;;
54263;SDS011;40178;53.042;6.406;2023-06-19T01:31:05;8.75;;;6.13;;
54263;SDS011;40178;53.042;6.406;2023-06-19T01:33:37;8.68;;;6.38;;
54263;SDS011;40178;53.042;6.406;2023-06-19T01:36:04;9.52;;;6.88;;
54263;SDS011;40178;53.042;6.406;2023-06-19T01:38:32;10.30;;;6.78;;
54263;SDS011;40178;53.042;6.406;2023-06-19T01:40:59;10.13;;;7.18;;
54263;SDS011;40178;53.042;6.406;2023-06-19T01:43:27;8.88;;;6.47;;
54263;SDS011;40178;53.042;6.406;2023-06-19T01:45:55;10.48;;;6.72;;
54263;SDS011;40178;53.042;6.406;2023-06-19T01:48:21;8.50;;;6.00;;
54263;SDS011;40178;53.042;6.406;2023-06-19T01:50:47;10.30;;;6.55;;
54263;SDS011;40178;53.042;6.406;2023-06-19T01:53:13;9.52;;;6.10;;
54263;SDS011;40178;53.042;6.406;2023-06-19T01:55:39;9.13;;;6.22;;
54263;SDS011;40178;53.042;6.406;2023-06-19T01:58:05;8.43;;;5.78;;
54263;SDS011;40178;53.042;6.406;2023-06-19T02:00:32;10.15;;;6.65;;
54263;SDS011;40178;53.042;6.406;2023-06-19T02:03:00;9.02;;;6.28;;
54263;SDS011;40178;53.042;6.406;2023-06-19T02:05:26;9.75;;;6.25;;
54263;SDS011;40178;53.042;6.406;2023-06-19T02:07:52;10.70;;;6.40;;
54263;SDS011;40178;53.042;6.406;2023-06-19T02:10:17;8.57;;;6.72;;
54263;SDS011;40178;53.042;6.406;2023-06-19T02:12:43;11.48;;;5.95;;
54263;SDS011;40178;53.042;6.406;2023-06-19T02:15:09;10.52;;;6.28;;
54263;SDS011;40178;53.042;6.406;2023-06-19T02:17:35;8.52;;;6.05;;
54263;SDS011;40178;53.042;6.406;2023-06-19T02:20:00;8.50;;;5.85;;
54263;SDS011;40178;53.042;6.406;2023-06-19T02:22:26;7.43;;;5.75;;
54263;SDS011;40178;53.042;6.406;2023-06-19T02:24:52;9.10;;;5.93;;
54263;SDS011;40178;53.042;6.406;2023-06-19T02:27:18;8.40;;;5.72;;
54263;SDS011;40178;53.042;6.406;2023-06-19T02:29:43;8.80;;;6.05;;
54263;SDS011;40178;53.042;6.406;2023-06-19T02:32:09;8.63;;;5.90;;
54263;SDS011;40178;53.042;6.406;2023-06-19T02:34:35;8.13;;;5.75;;
54263;SDS011;40178;53.042;6.406;2023-06-19T02:37:01;8.55;;;5.75;;
54263;SDS011;40178;53.042;6.406;2023-06-19T02:39:27;10.38;;;5.80;;
54263;SDS011;40178;53.042;6.406;2023-06-19T02:41:52;8.43;;;5.72;;
54263;SDS011;40178;53.042;6.406;2023-06-19T02:44:18;9.35;;;5.93;;
54263;SDS011;40178;53.042;6.406;2023-06-19T02:46:43;8.10;;;5.50;;
54263;SDS011;40178;53.042;6.406;2023-06-19T02:49:09;8.63;;;5.50;;
54263;SDS011;40178;53.042;6.406;2023-06-19T02:51:35;10.35;;;5.82;;
54263;SDS011;40178;53.042;6.406;2023-06-19T02:54:00;7.57;;;4.95;;
54263;SDS011;40178;53.042;6.406;2023-06-19T02:56:26;8.43;;;5.80;;
54263;SDS011;40178;53.042;6.406;2023-06-19T02:58:52;10.32;;;6.22;;
54263;SDS011;40178;53.042;6.406;2023-06-19T03:01:18;10.52;;;5.72;;
54263;SDS011;40178;53.042;6.406;2023-06-19T03:03:44;8.20;;;5.07;;
54263;SDS011;40178;53.042;6.406;2023-06-19T03:06:11;9.75;;;6.00;;
54263;SDS011;40178;53.042;6.406;2023-06-19T03:08:38;8.52;;;5.90;;
54263;SDS011;40178;53.042;6.406;2023-06-19T03:11:04;7.70;;;5.10;;
54263;SDS011;40178;53.042;6.406;2023-06-19T03:16:14;11.48;;;7.10;;
54263;SDS011;40178;53.042;6.406;2023-06-19T03:18:40;8.25;;;5.88;;
54263;SDS011;40178;53.042;6.406;2023-06-19T03:21:07;8.98;;;5.72;;
54263;SDS011;40178;53.042;6.406;2023-06-19T03:23:32;8.88;;;5.78;;
54263;SDS011;40178;53.042;6.406;2023-06-19T03:25:58;8.48;;;5.35;;
54263;SDS011;40178;53.042;6.406;2023-06-19T03:28:24;8.73;;;5.85;;
54263;SDS011;40178;53.042;6.406;2023-06-19T03:30:49;7.95;;;5.60;;
54263;SDS011;40178;53.042;6.406;2023-06-19T03:33:15;8.45;;;5.80;;
54263;SDS011;40178;53.042;6.406;2023-06-19T03:35:41;10.77;;;5.57;;
54263;SDS011;40178;53.042;6.406;2023-06-19T03:38:07;7.78;;;5.10;;
54263;SDS011;40178;53.042;6.406;2023-06-19T03:40:33;8.23;;;4.57;;
54263;SDS011;40178;53.042;6.406;2023-06-19T03:42:58;7.75;;;4.60;;
54263;SDS011;40178;53.042;6.406;2023-06-19T03:45:24;7.80;;;4.55;;
54263;SDS011;40178;53.042;6.406;2023-06-19T03:47:50;8.20;;;5.28;;
54263;SDS011;40178;53.042;6.406;2023-06-19T03:50:15;9.48;;;5.00;;
54263;SDS011;40178;53.042;6.406;2023-06-19T03:52:41;8.25;;;5.22;;
54263;SDS011;40178;53.042;6.406;2023-06-19T03:55:06;8.20;;;4.80;;
54263;SDS011;40178;53.042;6.406;2023-06-19T03:57:32;8.75;;;5.38;;
54263;SDS011;40178;53.042;6.406;2023-06-19T03:59:58;8.23;;;4.63;;
54263;SDS011;40178;53.042;6.406;2023-06-19T04:02:23;10.07;;;5.25;;
54263;SDS011;40178;53.042;6.406;2023-06-19T04:04:50;7.63;;;4.80;;
54263;SDS011;40178;53.042;6.406;2023-06-19T04:07:16;8.40;;;5.18;;
54263;SDS011;40178;53.042;6.406;2023-06-19T04:09:41;7.93;;;4.53;;
54263;SDS011;40178;53.042;6.406;2023-06-19T04:12:07;7.80;;;4.75;;
54263;SDS011;40178;53.042;6.406;2023-06-19T04:14:33;8.75;;;4.53;;
54263;SDS011;40178;53.042;6.406;2023-06-19T04:16:59;6.57;;;4.35;;
54263;SDS011;40178;53.042;6.406;2023-06-19T04:19:24;7.95;;;4.68;;
54263;SDS011;40178;53.042;6.406;2023-06-19T04:21:50;7.20;;;4.35;;
54263;SDS011;40178;53.042;6.406;2023-06-19T04:24:15;9.07;;;4.15;;
54263;SDS011;40178;53.042;6.406;2023-06-19T04:26:41;6.72;;;3.47;;
54263;SDS011;40178;53.042;6.406;2023-06-19T04:29:07;5.93;;;3.63;;
54263;SDS011;40178;53.042;6.406;2023-06-19T04:31:33;6.85;;;3.80;;
54263;SDS011;40178;53.042;6.406;2023-06-19T04:34:05;6.40;;;3.00;;
54263;SDS011;40178;53.042;6.406;2023-06-19T04:36:31;6.22;;;3.42;;
54263;SDS011;40178;53.042;6.406;2023-06-19T04:38:57;6.75;;;3.42;;
54263;SDS011;40178;53.042;6.406;2023-06-19T04:41:23;6.63;;;3.28;;
54263;SDS011;40178;53.042;6.406;2023-06-19T04:43:49;5.30;;;3.05;;
54263;SDS011;40178;53.042;6.406;2023-06-19T04:46:14;5.28;;;3.22;;
54263;SDS011;40178;53.042;6.406;2023-06-19T04:48:45;6.65;;;3.65;;
54263;SDS011;40178;53.042;6.406;2023-06-19T04:51:15;7.28;;;3.63;;
54263;SDS011;40178;53.042;6.406;2023-06-19T04:53:45;6.35;;;3.15;;
54263;SDS011;40178;53.042;6.406;2023-06-19T04:56:10;6.57;;;3.63;;
54263;SDS011;40178;53.042;6.406;2023-06-19T04:58:36;7.88;;;3.60;;
54263;SDS011;40178;53.042;6.406;2023-06-19T05:01:09;6.10;;;3.17;;
54263;SDS011;40178;53.042;6.406;2023-06-19T05:03:35;6.40;;;3.60;;
54263;SDS011;40178;53.042;6.406;2023-06-19T05:06:00;5.80;;;3.45;;
54263;SDS011;40178;53.042;6.406;2023-06-19T05:08:26;7.30;;;3.58;;
54263;SDS011;40178;53.042;6.406;2023-06-19T05:10:52;7.43;;;4.53;;
54263;SDS011;40178;53.042;6.406;2023-06-19T05:13:18;6.63;;;3.47;;
54263;SDS011;40178;53.042;6.406;2023-06-19T05:15:44;6.88;;;3.88;;
54263;SDS011;40178;53.042;6.406;2023-06-19T05:18:09;5.53;;;3.38;;
54263;SDS011;40178;53.042;6.406;2023-06-19T05:20:35;6.85;;;3.28;;
54263;SDS011;40178;53.042;6.406;2023-06-19T05:23:01;6.57;;;3.78;;
54263;SDS011;40178;53.042;6.406;2023-06-19T05:25:26;6.70;;;3.20;;
54263;SDS011;40178;53.042;6.406;2023-06-19T05:27:52;6.22;;;3.53;;
54263;SDS011;40178;53.042;6.406;2023-06-19T05:30:18;6.25;;;3.58;;
54263;SDS011;40178;53.042;6.406;2023-06-19T05:32:44;5.95;;;3.03;;
54263;SDS011;40178;53.042;6.406;2023-06-19T05:35:09;6.32;;;3.45;;
54263;SDS011;40178;53.042;6.406;2023-06-19T05:37:35;6.20;;;3.03;;
54263;SDS011;40178;53.042;6.406;2023-06-19T05:40:00;7.18;;;3.47;;
54263;SDS011;40178;53.042;6.406;2023-06-19T05:42:26;6.05;;;3.03;;
54263;SDS011;40178;53.042;6.406;2023-06-19T05:44:52;6.72;;;3.72;;
54263;SDS011;40178;53.042;6.406;2023-06-19T05:47:17;6.97;;;3.35;;
54263;SDS011;40178;53.042;6.406;2023-06-19T05:49:46;6.65;;;3.63;;
54263;SDS011;40178;53.042;6.406;2023-06-19T05:52:12;7.78;;;3.42;;
54263;SDS011;40178;53.042;6.406;2023-06-19T05:54:37;7.15;;;3.55;;
54263;SDS011;40178;53.042;6.406;2023-06-19T05:57:03;6.50;;;3.75;;
54263;SDS011;40178;53.042;6.406;2023-06-19T05:59:29;8.27;;;3.90;;
54263;SDS011;40178;53.042;6.406;2023-06-19T06:01:54;6.57;;;3.83;;
54263;SDS011;40178;53.042;6.406;2023-06-19T06:04:20;7.43;;;4.70;;
54263;SDS011;40178;53.042;6.406;2023-06-19T06:06:47;7.63;;;4.13;;
54263;SDS011;40178;53.042;6.406;2023-06-19T06:09:12;7.65;;;4.22;;
54263;SDS011;40178;53.042;6.406;2023-06-19T06:11:39;8.60;;;5.07;;
54263;SDS011;40178;53.042;6.406;2023-06-19T06:14:05;8.38;;;5.18;;
54263;SDS011;40178;53.042;6.406;2023-06-19T06:16:31;7.60;;;4.28;;
54263;SDS011;40178;53.042;6.406;2023-06-19T06:18:56;6.68;;;3.97;;
54263;SDS011;40178;53.042;6.406;2023-06-19T06:21:22;7.68;;;4.43;;
54263;SDS011;40178;53.042;6.406;2023-06-19T06:23:47;6.40;;;3.80;;
54263;SDS011;40178;53.042;6.406;2023-06-19T06:26:13;5.72;;;3.50;;
54263;SDS011;40178;53.042;6.406;2023-06-19T06:28:39;6.30;;;3.78;;
54263;SDS011;40178;53.042;6.406;2023-06-19T06:31:05;6.80;;;3.63;;
54263;SDS011;40178;53.042;6.406;2023-06-19T06:33:31;6.40;;;3.25;;
54263;SDS011;40178;53.042;6.406;2023-06-19T06:35:57;5.60;;;3.42;;
54263;SDS011;40178;53.042;6.406;2023-06-19T06:38:23;6.80;;;3.33;;
54263;SDS011;40178;53.042;6.406;2023-06-19T06:40:48;6.97;;;3.80;;
54263;SDS011;40178;53.042;6.406;2023-06-19T06:43:14;6.00;;;3.63;;
54263;SDS011;40178;53.042;6.406;2023-06-19T06:45:39;6.75;;;4.32;;
54263;SDS011;40178;53.042;6.406;2023-06-19T06:48:07;6.78;;;4.38;;
54263;SDS011;40178;53.042;6.406;2023-06-19T06:50:33;6.43;;;4.38;;
54263;SDS011;40178;53.042;6.406;2023-06-19T06:52:59;11.13;;;4.95;;
54263;SDS011;40178;53.042;6.406;2023-06-19T06:55:25;7.78;;;5.30;;
54263;SDS011;40178;53.042;6.406;2023-06-19T06:57:51;9.63;;;6.78;;
54263;SDS011;40178;53.042;6.406;2023-06-19T07:00:16;12.18;;;8.25;;
54263;SDS011;40178;53.042;6.406;2023-06-19T07:02:43;14.30;;;9.05;;
54263;SDS011;40178;53.042;6.406;2023-06-19T07:05:09;13.75;;;10.10;;
54263;SDS011;40178;53.042;6.406;2023-06-19T07:07:36;13.98;;;9.73;;
54263;SDS011;40178;53.042;6.406;2023-06-19T07:10:02;14.70;;;9.60;;
54263;SDS011;40178;53.042;6.406;2023-06-19T07:12:30;15.23;;;10.25;;
54263;SDS011;40178;53.042;6.406;2023-06-19T07:14:56;18.20;;;10.23;;
54263;SDS011;40178;53.042;6.406;2023-06-19T07:17:22;13.98;;;9.05;;
54263;SDS011;40178;53.042;6.406;2023-06-19T07:19:47;16.55;;;10.73;;
54263;SDS011;40178;53.042;6.406;2023-06-19T07:22:13;16.00;;;9.88;;
54263;SDS011;40178;53.042;6.406;2023-06-19T07:24:42;15.73;;;9.88;;
54263;SDS011;40178;53.042;6.406;2023-06-19T07:27:08;16.83;;;10.60;;
54263;SDS011;40178;53.042;6.406;2023-06-19T07:29:33;15.50;;;10.02;;
54263;SDS011;40178;53.042;6.406;2023-06-19T07:31:59;15.57;;;10.55;;
54263;SDS011;40178;53.042;6.406;2023-06-19T07:34:27;16.50;;;10.57;;
54263;SDS011;40178;53.042;6.406;2023-06-19T07:36:53;16.15;;;9.07;;
54263;SDS011;40178;53.042;6.406;2023-06-19T07:39:18;17.70;;;10.23;;
54263;SDS011;40178;53.042;6.406;2023-06-19T07:41:44;16.17;;;9.25;;
54263;SDS011;40178;53.042;6.406;2023-06-19T07:44:10;16.48;;;10.68;;
54263;SDS011;40178;53.042;6.406;2023-06-19T07:46:36;14.02;;;9.00;;
54263;SDS011;40178;53.042;6.406;2023-06-19T07:49:02;13.10;;;8.57;;
54263;SDS011;40178;53.042;6.406;2023-06-19T07:51:27;14.55;;;8.55;;
54263;SDS011;40178;53.042;6.406;2023-06-19T07:53:53;13.40;;;8.57;;
54263;SDS011;40178;53.042;6.406;2023-06-19T07:56:19;12.88;;;8.35;;
54263;SDS011;40178;53.042;6.406;2023-06-19T07:58:44;11.18;;;7.82;;
54263;SDS011;40178;53.042;6.406;2023-06-19T08:01:10;11.88;;;7.55;;
54263;SDS011;40178;53.042;6.406;2023-06-19T08:03:36;10.48;;;6.68;;
54263;SDS011;40178;53.042;6.406;2023-06-19T08:06:02;10.60;;;6.57;;
54263;SDS011;40178;53.042;6.406;2023-06-19T08:08:28;10.20;;;6.28;;
54263;SDS011;40178;53.042;6.406;2023-06-19T08:10:53;9.82;;;5.90;;
54263;SDS011;40178;53.042;6.406;2023-06-19T08:13:19;11.52;;;6.63;;
54263;SDS011;40178;53.042;6.406;2023-06-19T08:15:45;8.40;;;5.28;;
54263;SDS011;40178;53.042;6.406;2023-06-19T08:18:10;8.90;;;5.32;;
54263;SDS011;40178;53.042;6.406;2023-06-19T08:20:36;8.13;;;4.82;;
54263;SDS011;40178;53.042;6.406;2023-06-19T08:23:02;8.32;;;5.38;;
54263;SDS011;40178;53.042;6.406;2023-06-19T08:25:27;9.30;;;5.15;;
54263;SDS011;40178;53.042;6.406;2023-06-19T08:27:53;7.55;;;4.85;;
54263;SDS011;40178;53.042;6.406;2023-06-19T08:30:18;10.30;;;5.07;;
54263;SDS011;40178;53.042;6.406;2023-06-19T08:32:45;8.40;;;5.10;;
54263;SDS011;40178;53.042;6.406;2023-06-19T08:35:12;8.20;;;4.78;;
54263;SDS011;40178;53.042;6.406;2023-06-19T08:37:37;9.13;;;4.97;;
54263;SDS011;40178;53.042;6.406;2023-06-19T08:40:03;9.00;;;4.65;;
54263;SDS011;40178;53.042;6.406;2023-06-19T08:42:33;9.63;;;4.90;;
54263;SDS011;40178;53.042;6.406;2023-06-19T08:44:59;9.50;;;4.80;;
54263;SDS011;40178;53.042;6.406;2023-06-19T08:47:34;9.85;;;5.57;;
54263;SDS011;40178;53.042;6.406;2023-06-19T08:50:00;8.85;;;5.75;;
54263;SDS011;40178;53.042;6.406;2023-06-19T08:52:25;10.48;;;5.78;;
54263;SDS011;40178;53.042;6.406;2023-06-19T08:54:51;8.18;;;5.35;;
54263;SDS011;40178;53.042;6.406;2023-06-19T08:57:17;10.60;;;5.72;;
54263;SDS011;40178;53.042;6.406;2023-06-19T08:59:49;8.23;;;4.88;;
54263;SDS011;40178;53.042;6.406;2023-06-19T09:02:15;8.25;;;4.60;;
54263;SDS011;40178;53.042;6.406;2023-06-19T09:04:41;8.05;;;4.50;;
54263;SDS011;40178;53.042;6.406;2023-06-19T09:07:07;7.50;;;3.67;;
54263;SDS011;40178;53.042;6.406;2023-06-19T09:09:33;7.20;;;4.32;;
54263;SDS011;40178;53.042;6.406;2023-06-19T09:12:03;7.70;;;3.88;;
54263;SDS011;40178;53.042;6.406;2023-06-19T09:14:43;8.37;;;3.63;;
54263;SDS011;40178;53.042;6.406;2023-06-19T09:17:11;8.13;;;4.63;;
54263;SDS011;40178;53.042;6.406;2023-06-19T09:19:38;7.35;;;3.60;;
54263;SDS011;40178;53.042;6.406;2023-06-19T09:22:13;7.13;;;3.70;;
54263;SDS011;40178;53.042;6.406;2023-06-19T09:24:39;7.60;;;3.95;;
54263;SDS011;40178;53.042;6.406;2023-06-19T09:27:12;6.30;;;3.30;;
54263;SDS011;40178;53.042;6.406;2023-06-19T09:29:42;7.68;;;3.75;;
54263;SDS011;40178;53.042;6.406;2023-06-19T09:34:44;9.07;;;4.90;;
54263;SDS011;40178;53.042;6.406;2023-06-19T09:37:10;8.70;;;4.60;;
54263;SDS011;40178;53.042;6.406;2023-06-19T09:39:39;8.95;;;4.80;;
54263;SDS011;40178;53.042;6.406;2023-06-19T09:42:07;8.80;;;4.68;;
54263;SDS011;40178;53.042;6.406;2023-06-19T09:44:41;8.70;;;4.50;;
54263;SDS011;40178;53.042;6.406;2023-06-19T09:47:11;6.53;;;3.72;;
54263;SDS011;40178;53.042;6.406;2023-06-19T09:49:54;8.93;;;4.53;;
54263;SDS011;40178;53.042;6.406;2023-06-19T09:52:21;9.20;;;5.25;;
54263;SDS011;40178;53.042;6.406;2023-06-19T09:54:52;9.52;;;5.57;;
54263;SDS011;40178;53.042;6.406;2023-06-19T09:57:18;8.80;;;5.72;;
54263;SDS011;40178;53.042;6.406;2023-06-19T09:59:47;9.48;;;5.72;;
54263;SDS011;40178;53.042;6.406;2023-06-19T10:02:16;8.77;;;5.32;;
54263;SDS011;40178;53.042;6.406;2023-06-19T10:04:46;11.57;;;6.07;;
54263;SDS011;40178;53.042;6.406;2023-06-19T10:07:18;10.75;;;7.13;;
54263;SDS011;40178;53.042;6.406;2023-06-19T10:09:58;11.07;;;6.60;;
54263;SDS011;40178;53.042;6.406;2023-06-19T10:12:37;10.38;;;6.55;;
54263;SDS011;40178;53.042;6.406;2023-06-19T10:15:16;11.73;;;7.13;;
54263;SDS011;40178;53.042;6.406;2023-06-19T10:17:50;11.95;;;7.18;;
54263;SDS011;40178;53.042;6.406;2023-06-19T10:20:30;12.20;;;8.05;;
54263;SDS011;40178;53.042;6.406;2023-06-19T10:23:08;10.30;;;6.80;;
54263;SDS011;40178;53.042;6.406;2023-06-19T10:25:38;12.45;;;7.80;;
54263;SDS011;40178;53.042;6.406;2023-06-19T10:28:16;12.25;;;7.63;;
54263;SDS011;40178;53.042;6.406;2023-06-19T10:30:53;12.52;;;7.80;;
54263;SDS011;40178;53.042;6.406;2023-06-19T10:33:30;13.15;;;8.57;;
54263;SDS011;40178;53.042;6.406;2023-06-19T10:36:00;14.23;;;8.17;;
54263;SDS011;40178;53.042;6.406;2023-06-19T10:38:27;12.32;;;6.90;;
54263;SDS011;40178;53.042;6.406;2023-06-19T10:40:53;13.18;;;7.68;;
54263;SDS011;40178;53.042;6.406;2023-06-19T10:43:19;11.50;;;8.80;;
54263;SDS011;40178;53.042;6.406;2023-06-19T10:45:48;15.00;;;9.48;;
54263;SDS011;40178;53.042;6.406;2023-06-19T10:48:18;14.82;;;8.27;;
54263;SDS011;40178;53.042;6.406;2023-06-19T10:50:45;12.40;;;8.23;;
54263;SDS011;40178;53.042;6.406;2023-06-19T10:53:10;11.50;;;7.22;;
54263;SDS011;40178;53.042;6.406;2023-06-19T10:55:36;11.15;;;6.93;;
54263;SDS011;40178;53.042;6.406;2023-06-19T10:58:02;10.75;;;7.47;;
54263;SDS011;40178;53.042;6.406;2023-06-19T11:00:28;11.80;;;7.00;;
54263;SDS011;40178;53.042;6.406;2023-06-19T11:02:57;9.95;;;6.70;;
54263;SDS011;40178;53.042;6.406;2023-06-19T11:05:23;10.90;;;6.43;;
54263;SDS011;40178;53.042;6.406;2023-06-19T11:07:54;10.80;;;7.07;;
54263;SDS011;40178;53.042;6.406;2023-06-19T11:10:22;11.27;;;6.97;;
54263;SDS011;40178;53.042;6.406;2023-06-19T11:12:49;11.30;;;7.03;;
54263;SDS011;40178;53.042;6.406;2023-06-19T11:15:18;11.38;;;7.78;;
54263;SDS011;40178;53.042;6.406;2023-06-19T11:17:43;14.75;;;8.20;;
54263;SDS011;40178;53.042;6.406;2023-06-19T11:20:10;11.82;;;7.75;;
54263;SDS011;40178;53.042;6.406;2023-06-19T11:22:40;11.77;;;7.75;;
54263;SDS011;40178;53.042;6.406;2023-06-19T11:25:07;11.05;;;7.13;;
54263;SDS011;40178;53.042;6.406;2023-06-19T11:27:34;14.25;;;7.50;;
54263;SDS011;40178;53.042;6.406;2023-06-19T11:30:03;11.73;;;7.88;;
54263;SDS011;40178;53.042;6.406;2023-06-19T11:32:32;11.45;;;7.20;;
54263;SDS011;40178;53.042;6.406;2023-06-19T11:35:06;11.90;;;7.87;;
54263;SDS011;40178;53.042;6.406;2023-06-19T11:37:36;13.43;;;9.05;;
54263;SDS011;40178;53.042;6.406;2023-06-19T11:40:06;12.90;;;7.78;;
54263;SDS011;40178;53.042;6.406;2023-06-19T11:42:58;12.13;;;8.23;;
54263;SDS011;40178;53.042;6.406;2023-06-19T11:45:22;12.15;;;8.52;;
54263;SDS011;40178;53.042;6.406;2023-06-19T11:47:49;15.35;;;9.60;;
54263;SDS011;40178;53.042;6.406;2023-06-19T11:50:14;15.27;;;9.95;;
54263;SDS011;40178;53.042;6.406;2023-06-19T11:52:42;16.25;;;10.50;;
54263;SDS011;40178;53.042;6.406;2023-06-19T11:55:09;15.43;;;10.00;;
54263;SDS011;40178;53.042;6.406;2023-06-19T11:57:35;13.82;;;9.02;;
54263;SDS011;40178;53.042;6.406;2023-06-19T12:00:00;14.27;;;9.60;;
54263;SDS011;40178;53.042;6.406;2023-06-19T12:02:27;13.73;;;9.70;;
54263;SDS011;40178;53.042;6.406;2023-06-19T12:04:52;13.82;;;9.60;;
54263;SDS011;40178;53.042;6.406;2023-06-19T12:07:18;14.68;;;9.00;;
54263;SDS011;40178;53.042;6.406;2023-06-19T12:09:44;14.68;;;9.02;;
54263;SDS011;40178;53.042;6.406;2023-06-19T12:12:10;13.52;;;8.10;;
54263;SDS011;40178;53.042;6.406;2023-06-19T12:14:36;12.65;;;8.02;;
54263;SDS011;40178;53.042;6.406;2023-06-19T12:17:02;12.65;;;7.93;;
54263;SDS011;40178;53.042;6.406;2023-06-19T12:19:29;13.10;;;7.57;;
54263;SDS011;40178;53.042;6.406;2023-06-19T12:21:54;13.18;;;7.80;;
54263;SDS011;40178;53.042;6.406;2023-06-19T12:24:20;11.10;;;7.88;;
54263;SDS011;40178;53.042;6.406;2023-06-19T12:26:46;12.98;;;7.78;;
54263;SDS011;40178;53.042;6.406;2023-06-19T12:29:12;12.68;;;7.70;;
54263;SDS011;40178;53.042;6.406;2023-06-19T12:31:37;12.43;;;7.32;;
54263;SDS011;40178;53.042;6.406;2023-06-19T12:34:03;10.57;;;7.32;;
54263;SDS011;40178;53.042;6.406;2023-06-19T12:36:31;11.07;;;7.10;;
54263;SDS011;40178;53.042;6.406;2023-06-19T12:38:58;13.90;;;7.82;;
54263;SDS011;40178;53.042;6.406;2023-06-19T12:41:24;10.63;;;6.88;;
54263;SDS011;40178;53.042;6.406;2023-06-19T12:43:50;10.57;;;6.35;;
54263;SDS011;40178;53.042;6.406;2023-06-19T12:46:15;13.25;;;6.70;;
54263;SDS011;40178;53.042;6.406;2023-06-19T12:48:41;9.73;;;5.35;;
54263;SDS011;40178;53.042;6.406;2023-06-19T12:51:07;12.73;;;5.88;;
54263;SDS011;40178;53.042;6.406;2023-06-19T12:53:33;14.30;;;5.57;;
54263;SDS011;40178;53.042;6.406;2023-06-19T12:55:59;11.88;;;5.88;;
54263;SDS011;40178;53.042;6.406;2023-06-19T12:58:25;9.77;;;5.63;;
54263;SDS011;40178;53.042;6.406;2023-06-19T13:00:51;16.85;;;6.25;;
54263;SDS011;40178;53.042;6.406;2023-06-19T13:03:18;10.75;;;5.60;;
54263;SDS011;40178;53.042;6.406;2023-06-19T13:05:44;10.32;;;5.80;;
54263;SDS011;40178;53.042;6.406;2023-06-19T13:08:11;8.57;;;5.53;;
54263;SDS011;40178;53.042;6.406;2023-06-19T13:10:36;8.02;;;5.20;;
54263;SDS011;40178;53.042;6.406;2023-06-19T13:13:03;12.40;;;5.95;;
54263;SDS011;40178;53.042;6.406;2023-06-19T13:15:30;70.07;;;13.80;;
54263;SDS011;40178;53.042;6.406;2023-06-19T13:17:58;14.05;;;5.90;;
54263;SDS011;40178;53.042;6.406;2023-06-19T13:20:24;10.38;;;5.50;;
54263;SDS011;40178;53.042;6.406;2023-06-19T13:22:50;8.15;;;5.60;;
54263;SDS011;40178;53.042;6.406;2023-06-19T13:25:16;9.73;;;4.97;;
54263;SDS011;40178;53.042;6.406;2023-06-19T13:27:42;8.23;;;4.60;;
54263;SDS011;40178;53.042;6.406;2023-06-19T13:30:08;8.35;;;4.60;;
54263;SDS011;40178;53.042;6.406;2023-06-19T13:32:34;10.93;;;4.80;;
54263;SDS011;40178;53.042;6.406;2023-06-19T13:35:00;11.23;;;5.10;;
54263;SDS011;40178;53.042;6.406;2023-06-19T13:37:26;8.48;;;4.82;;
54263;SDS011;40178;53.042;6.406;2023-06-19T13:39:51;9.00;;;4.85;;
54263;SDS011;40178;53.042;6.406;2023-06-19T13:42:17;8.93;;;5.07;;
54263;SDS011;40178;53.042;6.406;2023-06-19T13:44:42;8.65;;;4.70;;
54263;SDS011;40178;53.042;6.406;2023-06-19T13:47:08;8.70;;;3.88;;
54263;SDS011;40178;53.042;6.406;2023-06-19T13:49:34;7.95;;;3.92;;
54263;SDS011;40178;53.042;6.406;2023-06-19T13:51:59;6.00;;;3.88;;
54263;SDS011;40178;53.042;6.406;2023-06-19T13:54:25;8.18;;;4.30;;
54263;SDS011;40178;53.042;6.406;2023-06-19T13:56:51;8.32;;;4.20;;
54263;SDS011;40178;53.042;6.406;2023-06-19T13:59:17;7.60;;;4.10;;
54263;SDS011;40178;53.042;6.406;2023-06-19T14:01:42;7.72;;;3.85;;
54263;SDS011;40178;53.042;6.406;2023-06-19T14:04:08;6.07;;;3.72;;
54263;SDS011;40178;53.042;6.406;2023-06-19T14:06:34;6.07;;;3.92;;
54263;SDS011;40178;53.042;6.406;2023-06-19T14:09:00;7.05;;;3.50;;
54263;SDS011;40178;53.042;6.406;2023-06-19T14:11:26;7.30;;;4.60;;
54263;SDS011;40178;53.042;6.406;2023-06-19T14:13:54;6.32;;;3.55;;
54263;SDS011;40178;53.042;6.406;2023-06-19T14:16:19;7.72;;;3.70;;
54263;SDS011;40178;53.042;6.406;2023-06-19T14:18:45;7.70;;;4.10;;
54263;SDS011;40178;53.042;6.406;2023-06-19T14:21:11;6.05;;;3.45;;
54263;SDS011;40178;53.042;6.406;2023-06-19T14:23:36;6.88;;;4.20;;
54263;SDS011;40178;53.042;6.406;2023-06-19T14:26:07;8.82;;;4.28;;
54263;SDS011;40178;53.042;6.406;2023-06-19T14:28:34;7.38;;;3.50;;
54263;SDS011;40178;53.042;6.406;2023-06-19T14:31:01;8.10;;;4.50;;
54263;SDS011;40178;53.042;6.406;2023-06-19T14:33:26;7.75;;;4.65;;
54263;SDS011;40178;53.042;6.406;2023-06-19T14:35:52;7.25;;;3.97;;
54263;SDS011;40178;53.042;6.406;2023-06-19T14:38:18;6.95;;;3.78;;
54263;SDS011;40178;53.042;6.406;2023-06-19T14:40:43;9.32;;;4.32;;
54263;SDS011;40178;53.042;6.406;2023-06-19T14:43:09;6.18;;;4.38;;
54263;SDS011;40178;53.042;6.406;2023-06-19T14:45:35;8.07;;;4.13;;
54263;SDS011;40178;53.042;6.406;2023-06-19T14:48:01;8.45;;;3.95;;
54263;SDS011;40178;53.042;6.406;2023-06-19T14:50:27;8.15;;;4.13;;